Moxee, Washington
Current Conditions -  °F | °C
As of 1:53 AM on Friday 24 Oct 2014 (Local Time) from KYKM Reporting Station
Few Clouds Few Clouds  
Wind Chill: 38°   Ceiling: Unl
Heat Index: 41°   Visibility: 10mi
Dew Point: 38°   Wind: 5mph
Humidity: 89%   Direction: 280°W
Pressure: 30.03"   Gusts: NA
Location:  46.56°N, 120.4°W
Report Text: KYKM 240853Z AUTO 28004KT 10SM FEW065 05/03 A3003 RMK AO2 SLP170 T00500033 50011
Loading
Personal Weather Stations






























Interactive Weather Map
Tropical Storm Tracking
New forecast layout! Learn more

10-Day Weather Forecast

Advertisements
Track Severe Weather on mobile